Time;durP1;ratioP1;P1;durP2;ratioP2;P2;SDS_P1;SDS_P2;PMS_P1;PMS_P2;Temp;Humidity;BMP_temperature;BMP_pressure;BME280_temperature;BME280_humidity;BME280_pressure;Samples;Min_cycle;Max_cycle;Signal;HPM_P1;HPM_P2
2022/08/06 00:02:29;;;;;;;12.82;8.27;;;;;;;18.84;66.80;97398.44;10188206;28;20082;-57
2022/08/06 00:07:28;;;;;;;12.60;8.10;;;;;;;18.70;68.18;97411.28;10185060;28;20050;-57
2022/08/06 00:12:29;;;;;;;12.55;8.95;;;;;;;18.66;68.55;97417.53;10212291;28;20027;-57
2022/08/06 00:17:29;;;;;;;13.48;9.00;;;;;;;18.49;68.81;97418.19;10213714;28;20074;-57
2022/08/06 00:22:28;;;;;;;14.75;8.38;;;;;;;18.42;68.92;97420.19;10198697;28;20094;-57
2022/08/06 00:27:27;;;;;;;11.57;8.70;;;;;;;18.41;68.97;97415.88;10172940;29;20030;-57
2022/08/06 00:32:26;;;;;;;12.27;7.57;;;;;;;18.36;68.98;97415.16;10173854;28;20074;-57
2022/08/06 00:37:27;;;;;;;11.55;8.02;;;;;;;18.30;68.85;97418.88;10176396;28;20042;-56
2022/08/06 00:42:27;;;;;;;12.40;8.15;;;;;;;18.26;69.19;97416.44;10210783;28;20069;-56
2022/08/06 00:47:26;;;;;;;11.75;7.43;;;;;;;18.24;69.44;97423.50;10212204;28;20055;-56
2022/08/06 00:52:25;;;;;;;12.57;8.18;;;;;;;18.20;69.83;97417.53;10211221;28;20031;-57
2022/08/06 00:57:24;;;;;;;10.23;7.13;;;;;;;18.15;70.20;97425.56;10211501;28;20039;-56
2022/08/06 01:02:23;;;;;;;10.10;7.72;;;;;;;18.17;70.20;97436.00;10212003;28;20444;-56
2022/08/06 01:07:22;;;;;;;12.52;8.15;;;;;;;18.12;70.66;97432.69;10186382;28;20059;-57
2022/08/06 01:12:21;;;;;;;11.93;8.50;;;;;;;18.15;70.63;97435.19;10211438;28;20054;-57
2022/08/06 01:17:51;;;;;;;14.73;9.43;;;;;;;18.13;70.76;97430.00;10211482;28;20070;-57
2022/08/06 01:22:59;;;;;;;13.40;7.90;;;;;;;18.18;70.60;97430.69;10194543;28;20070;-56
2022/08/06 01:28:04;;;;;;;13.18;8.02;;;;;;;18.18;70.59;97427.22;10211121;28;20077;-56
2022/08/06 01:33:09;;;;;;;10.68;7.60;;;;;;;18.12;70.66;97416.94;10212525;28;20090;-56
2022/08/06 01:38:17;;;;;;;9.95;7.75;;;;;;;18.13;70.42;97416.03;10192162;28;20070;-56
2022/08/06 01:43:19;;;;;;;10.73;6.95;;;;;;;18.10;70.66;97410.88;10213449;28;20560;-56
2022/08/06 01:48:23;;;;;;;11.75;8.13;;;;;;;18.11;70.80;97396.84;10210065;28;20062;-56
2022/08/06 01:53:29;;;;;;;11.05;7.60;;;;;;;18.08;70.87;97405.69;10195413;28;20092;-56
2022/08/06 01:58:36;;;;;;;9.43;7.63;;;;;;;18.08;71.00;97400.44;10192113;28;20070;-56
2022/08/06 02:03:42;;;;;;;12.77;8.07;;;;;;;18.06;71.10;97394.41;10175141;29;20055;-57
2022/08/06 02:08:43;;;;;;;10.70;7.65;;;;;;;18.03;71.25;97391.84;10224666;28;20594;-56
2022/08/06 02:13:43;;;;;;;10.52;7.82;;;;;;;17.93;71.55;97378.22;10190237;28;20075;-56
2022/08/06 02:18:47;;;;;;;10.02;7.82;;;;;;;17.95;71.58;97381.66;10176564;29;20078;-56
2022/08/06 02:23:48;;;;;;;10.13;7.65;;;;;;;17.92;71.40;97383.53;10205315;28;20066;-56
2022/08/06 02:28:49;;;;;;;9.45;7.15;;;;;;;17.88;71.84;97379.31;10180639;28;20058;-56
2022/08/06 02:33:48;;;;;;;12.80;7.45;;;;;;;17.86;71.73;97379.34;10215754;28;20078;-56
2022/08/06 02:38:55;;;;;;;15.75;7.82;;;;;;;17.84;72.09;97382.94;10215320;28;20085;-57
2022/08/06 02:44:02;;;;;;;13.63;8.30;;;;;;;17.76;72.45;97391.97;10210326;28;20066;-56
2022/08/06 02:49:08;;;;;;;12.63;7.72;;;;;;;17.69;72.81;97385.19;10215689;28;20067;-57
2022/08/06 02:54:13;;;;;;;12.55;7.50;;;;;;;17.57;73.48;97385.63;10215485;28;20085;-57
2022/08/06 02:59:17;;;;;;;11.48;8.30;;;;;;;17.45;73.61;97380.78;10215899;28;20487;-56
2022/08/06 03:04:17;;;;;;;10.52;7.78;;;;;;;17.45;73.95;97397.41;10215273;28;20062;-56
2022/08/06 03:09:18;;;;;;;11.30;8.00;;;;;;;17.45;74.38;97388.66;10201281;28;20531;-57
2022/08/06 03:14:19;;;;;;;12.55;7.35;;;;;;;17.37;74.26;97393.31;10175599;28;20071;-56
2022/08/06 03:19:20;;;;;;;12.10;7.20;;;;;;;17.37;74.27;97395.94;10174823;29;20073;-56
2022/08/06 03:24:20;;;;;;;9.32;7.53;;;;;;;17.37;74.17;97398.56;10206662;28;20078;-56
2022/08/06 03:29:19;;;;;;;10.98;7.95;;;;;;;17.35;74.18;97399.47;10213679;28;20062;-57
2022/08/06 03:34:20;;;;;;;9.88;7.50;;;;;;;17.34;74.06;97403.00;10213681;28;20082;-56
2022/08/06 03:39:19;;;;;;;14.60;8.68;;;;;;;17.33;74.19;97403.03;10204842;28;20575;-57
2022/08/06 03:44:19;;;;;;;10.50;7.38;;;;;;;17.27;74.51;97409.34;10213617;28;20078;-56
2022/08/06 03:49:30;;;;;;;12.25;7.78;;;;;;;17.29;74.47;97412.78;10214253;28;20070;-56
2022/08/06 03:54:38;;;;;;;9.80;8.18;;;;;;;17.30;74.55;97405.78;10205200;28;20053;-56
2022/08/06 03:59:42;;;;;;;13.95;8.77;;;;;;;17.35;74.71;97407.34;10173916;29;20063;-56
2022/08/06 04:04:42;;;;;;;12.38;8.05;;;;;;;17.38;75.05;97410.75;10206435;28;20477;-56
2022/08/06 04:09:44;;;;;;;11.32;8.43;;;;;;;17.45;74.92;97407.91;10227178;28;20085;-56
2022/08/06 04:14:43;;;;;;;13.88;8.90;;;;;;;17.49;74.89;97417.34;10215341;28;20066;-56
2022/08/06 04:19:44;;;;;;;15.70;10.30;;;;;;;17.42;75.17;97413.22;10211355;28;20062;-56
2022/08/06 04:24:43;;;;;;;14.25;9.82;;;;;;;17.50;74.82;97420.84;10246870;28;20050;-55
2022/08/06 04:29:44;;;;;;;15.70;10.25;;;;;;;17.54;75.07;97422.44;10215450;28;20480;-56
2022/08/06 04:34:45;;;;;;;13.90;9.38;;;;;;;17.59;74.88;97433.66;10212736;28;20497;-57
2022/08/06 04:39:45;;;;;;;15.85;9.60;;;;;;;17.73;74.43;97436.66;10219680;28;20625;-56
2022/08/06 04:44:44;;;;;;;15.55;9.90;;;;;;;17.76;74.74;97433.94;10212260;28;20535;-56
2022/08/06 04:49:44;;;;;;;12.85;9.13;;;;;;;17.72;75.05;97442.81;10211450;28;20059;-56
2022/08/06 04:54:43;;;;;;;16.02;10.68;;;;;;;17.86;74.65;97452.84;10210523;28;20070;-57
2022/08/06 04:59:42;;;;;;;13.02;10.07;;;;;;;17.98;74.23;97455.03;10230984;28;20026;-57
2022/08/06 05:04:42;;;;;;;11.93;10.25;;;;;;;18.18;73.68;97454.34;10223309;28;20050;-57
2022/08/06 05:09:41;;;;;;;14.45;10.32;;;;;;;18.37;73.31;97451.03;10234895;28;20106;-57
2022/08/06 05:14:48;;;;;;;15.90;10.32;;;;;;;18.56;72.63;97449.41;10231410;28;20070;-57
2022/08/06 05:19:55;;;;;;;14.07;9.27;;;;;;;18.67;72.49;97459.53;10227984;28;20080;-56
2022/08/06 05:24:55;;;;;;;12.77;9.48;;;;;;;18.77;72.63;97452.19;10245049;28;20171;-56
2022/08/06 05:29:55;;;;;;;14.68;8.60;;;;;;;18.97;72.31;97454.91;10217960;28;20487;-57
2022/08/06 05:34:54;;;;;;;11.98;8.27;;;;;;;19.11;71.68;97448.22;10223988;28;20070;-55
2022/08/06 05:39:53;;;;;;;12.63;8.15;;;;;;;19.36;71.00;97448.91;10226141;28;20121;-55
2022/08/06 05:44:52;;;;;;;11.48;8.57;;;;;;;19.66;70.11;97452.09;10217498;28;20031;-55
2022/08/06 05:50:04;;;;;;;11.18;8.00;;;;;;;19.90;69.33;97445.84;10251005;28;20607;-57
2022/08/06 05:55:15;;;;;;;11.73;7.80;;;;;;;20.21;67.75;97433.03;10221758;28;20090;-55
2022/08/06 06:00:17;;;;;;;9.77;7.43;;;;;;;20.47;66.35;97442.41;10211824;28;20121;-55
2022/08/06 06:05:17;;;;;;;11.88;8.52;;;;;;;20.67;65.62;97438.00;10213301;28;20575;-57
2022/08/06 06:10:18;;;;;;;12.70;8.27;;;;;;;20.77;64.19;97427.88;10212174;28;20138;-57
2022/08/06 06:15:18;;;;;;;13.32;8.07;;;;;;;21.01;63.79;97424.06;10224691;28;20121;-57
2022/08/06 06:20:22;;;;;;;11.70;9.90;;;;;;;21.19;62.64;97434.63;10214944;28;20074;-57
2022/08/06 06:25:27;;;;;;;15.05;9.30;;;;;;;21.32;61.29;97419.94;10213898;28;20058;-57
2022/08/06 06:30:38;;;;;;;12.23;8.52;;;;;;;21.64;61.19;97434.19;10228470;28;20073;-56
2022/08/06 06:35:53;;;;;;;12.32;7.93;;;;;;;21.91;58.21;97431.88;10253588;28;20077;-56
2022/08/06 06:41:16;;;;;;;10.43;7.63;;;;;;;22.25;57.67;97427.53;10238167;28;20058;-55
2022/08/06 06:46:21;;;;;;;14.25;7.22;;;;;;;22.52;56.80;97413.72;10251729;28;20058;-56
2022/08/06 06:51:46;;;;;;;10.25;7.85;;;;;;;22.73;56.41;97415.19;10226897;28;20527;-56
2022/08/06 06:56:48;;;;;;;9.68;7.97;;;;;;;22.92;55.41;97417.69;10222153;28;20054;-56
2022/08/06 07:01:49;;;;;;;13.50;9.20;;;;;;;23.18;54.49;97410.06;10232387;28;20073;-55
2022/08/06 07:06:52;;;;;;;12.32;8.63;;;;;;;23.39;53.18;97415.91;10246569;28;20066;-56
2022/08/06 07:11:54;;;;;;;11.82;8.20;;;;;;;23.71;52.39;97407.91;10245821;28;20073;-57
2022/08/06 07:16:56;;;;;;;13.80;8.65;;;;;;;24.00;51.26;97404.31;10257560;28;20078;-57
2022/08/06 07:21:56;;;;;;;10.00;8.13;;;;;;;24.22;50.77;97403.91;10258210;28;20077;-56
2022/08/06 07:26:55;;;;;;;11.50;8.00;;;;;;;24.46;50.23;97404.16;10224992;28;20074;-55
2022/08/06 07:31:58;;;;;;;12.20;7.57;;;;;;;24.78;49.80;97390.69;10216310;28;20527;-56
2022/08/06 07:36:58;;;;;;;8.23;6.22;;;;;;;25.07;47.60;97390.59;10218030;28;20064;-56
2022/08/06 07:42:00;;;;;;;8.18;6.88;;;;;;;25.37;46.80;97373.59;10225447;28;20086;-55
2022/08/06 07:47:02;;;;;;;9.65;6.65;;;;;;;25.72;44.53;97381.88;10211989;28;20573;-56
2022/08/06 07:52:02;;;;;;;7.40;5.80;;;;;;;26.02;43.85;97368.25;10234554;28;20066;-56
2022/08/06 07:57:01;;;;;;;6.85;5.63;;;;;;;26.41;40.84;97369.06;10208085;28;20126;-56
2022/08/06 08:02:02;;;;;;;7.20;5.35;;;;;;;26.65;39.71;97370.94;10206937;28;20630;-56
2022/08/06 08:07:03;;;;;;;6.82;5.88;;;;;;;26.97;40.20;97374.78;10236785;28;20109;-56
2022/08/06 08:12:05;;;;;;;9.50;5.70;;;;;;;27.25;40.72;97372.75;10207222;28;20718;-56
2022/08/06 08:17:04;;;;;;;6.65;5.63;;;;;;;27.52;39.27;97382.31;10211669;28;20074;-57
2022/08/06 08:22:10;;;;;;;6.15;4.78;;;;;;;27.85;38.66;97378.03;10233667;28;20369;-57
2022/08/06 08:27:10;;;;;;;7.47;4.72;;;;;;;28.21;37.48;97375.19;10217894;28;20070;-57
2022/08/06 08:32:09;;;;;;;6.30;4.60;;;;;;;28.43;36.10;97373.47;10211611;28;20076;-56
2022/08/06 08:37:08;;;;;;;8.00;4.85;;;;;;;28.64;36.48;97366.44;10211567;28;20075;-58
2022/08/06 08:42:13;;;;;;;21.92;5.43;;;;;;;28.94;36.63;97362.25;10230223;28;20074;-56
2022/08/06 08:47:14;;;;;;;5.28;4.43;;;;;;;29.15;35.16;97356.09;10225716;28;20136;-56
2022/08/06 08:52:20;;;;;;;7.35;4.22;;;;;;;29.17;34.62;97351.50;10224652;28;20072;-57
2022/08/06 08:57:22;;;;;;;5.72;4.70;;;;;;;29.45;34.93;97352.72;10225762;28;20085;-57
2022/08/06 09:02:23;;;;;;;6.57;4.10;;;;;;;29.77;34.48;97351.81;10252346;28;20100;-56
2022/08/06 09:07:22;;;;;;;5.85;4.40;;;;;;;30.02;35.45;97337.19;10256129;28;20334;-56
2022/08/06 09:12:22;;;;;;;5.65;4.75;;;;;;;30.29;34.60;97353.50;10225026;28;20499;-56
2022/08/06 09:17:21;;;;;;;7.32;4.32;;;;;;;30.47;33.21;97344.88;10224862;28;20062;-56
2022/08/06 09:22:20;;;;;;;6.97;4.35;;;;;;;30.66;33.07;97336.03;10240490;28;20563;-56
2022/08/06 09:27:19;;;;;;;6.65;4.25;;;;;;;30.89;33.01;97342.84;10237859;28;20058;-56
2022/08/06 09:32:44;;;;;;;5.53;4.10;;;;;;;31.14;31.08;97335.25;10233778;28;20038;-56
2022/08/06 09:37:44;;;;;;;4.30;3.53;;;;;;;31.20;29.70;97325.81;10244184;28;20121;-56
2022/08/06 09:42:48;;;;;;;5.35;4.05;;;;;;;31.34;29.41;97333.44;10232591;28;20066;-56
2022/08/06 09:47:48;;;;;;;4.65;4.22;;;;;;;30.99;28.84;97332.16;10250557;28;20070;-56
2022/08/06 09:53:00;;;;;;;5.78;4.25;;;;;;;30.95;29.60;97328.03;10244774;28;20070;-56
2022/08/06 09:58:00;;;;;;;6.40;4.03;;;;;;;30.89;29.68;97328.56;10241586;28;20073;-56
2022/08/06 10:03:01;;;;;;;4.82;3.70;;;;;;;30.88;29.59;97318.88;10242938;28;20066;-56
2022/08/06 10:08:05;;;;;;;5.13;4.47;;;;;;;30.81;29.40;97307.00;10234810;28;20070;-56
2022/08/06 10:13:26;;;;;;;5.55;4.13;;;;;;;30.84;30.51;97329.00;10250559;28;20089;-58
2022/08/06 10:18:40;;;;;;;4.22;3.78;;;;;;;30.98;29.09;97325.09;10228720;28;20069;-56
2022/08/06 10:23:40;;;;;;;6.00;4.55;;;;;;;31.08;29.36;97319.75;10244335;28;20062;-55
2022/08/06 10:28:42;;;;;;;4.63;4.05;;;;;;;31.16;28.42;97318.06;10248477;28;20062;-55
2022/08/06 10:33:55;;;;;;;4.45;3.90;;;;;;;31.12;28.94;97322.03;10231137;28;20186;-56
2022/08/06 10:38:55;;;;;;;4.95;4.45;;;;;;;31.05;29.35;97318.19;10218432;28;20058;-56
2022/08/06 10:43:55;;;;;;;6.03;4.53;;;;;;;31.12;29.12;97313.97;10255536;28;20061;-56
2022/08/06 10:48:54;;;;;;;7.88;4.60;;;;;;;31.21;28.74;97300.69;10229374;28;20636;-56
2022/08/06 10:53:54;;;;;;;5.40;4.72;;;;;;;31.63;28.75;97295.88;10214885;28;20062;-56
2022/08/06 10:58:53;;;;;;;7.22;4.80;;;;;;;32.21;28.96;97297.53;10217139;28;20649;-55
2022/08/06 11:04:20;;;;;;;5.18;4.63;;;;;;;32.33;27.32;97295.50;10231459;28;20450;-56
2022/08/06 11:09:56;;;;;;;5.40;4.90;;;;;;;32.16;26.88;97302.50;10229216;28;20496;-56
2022/08/06 11:14:57;;;;;;;5.95;5.03;;;;;;;32.47;27.26;97283.41;10225012;28;20117;-56
2022/08/06 11:19:56;;;;;;;6.57;5.07;;;;;;;32.43;26.28;97290.91;10233343;28;20464;-56
2022/08/06 11:24:57;;;;;;;5.47;4.90;;;;;;;32.65;27.20;97289.69;10246881;28;20133;-56
2022/08/06 11:30:12;;;;;;;7.00;4.78;;;;;;;33.14;27.24;97289.31;10253584;28;20077;-56
2022/08/06 11:35:33;;;;;;;5.85;4.55;;;;;;;33.58;25.76;97275.88;10233977;28;20588;-56
2022/08/06 11:40:54;;;;;;;5.93;5.03;;;;;;;33.00;26.33;97285.31;10239562;28;20064;-57
2022/08/06 11:46:17;;;;;;;5.80;4.60;;;;;;;32.52;26.87;97295.38;10239242;28;20085;-56
2022/08/06 11:51:35;;;;;;;5.45;4.85;;;;;;;32.06;27.59;97291.81;10225694;28;20077;-56
2022/08/06 11:56:34;;;;;;;5.72;4.57;;;;;;;31.86;27.88;97299.06;10240361;28;20550;-55
2022/08/06 12:01:46;;;;;;;6.50;5.63;;;;;;;31.66;28.35;97284.00;10226717;28;20526;-56
2022/08/06 12:06:46;;;;;;;7.70;4.60;;;;;;;31.63;28.50;97281.63;10228770;28;20064;-57
2022/08/06 12:11:44;;;;;;;6.22;4.60;;;;;;;31.59;28.66;97276.56;10232578;28;20488;-57
2022/08/06 12:16:44;;;;;;;5.13;4.40;;;;;;;31.85;28.23;97264.31;10220837;28;20523;-58
2022/08/06 12:21:43;;;;;;;5.07;4.57;;;;;;;31.96;27.24;97251.53;10232715;28;20513;-56
2022/08/06 12:26:42;;;;;;;6.13;4.88;;;;;;;32.07;27.46;97244.34;10229157;28;20114;-56
2022/08/06 12:31:41;;;;;;;5.80;5.07;;;;;;;32.39;26.38;97252.78;10234230;28;20185;-56
2022/08/06 12:36:42;;;;;;;6.05;5.45;;;;;;;32.82;25.70;97236.94;10224009;28;20122;-56
2022/08/06 12:41:42;;;;;;;6.55;5.45;;;;;;;32.90;25.43;97228.94;10232307;28;20073;-56
2022/08/06 12:46:41;;;;;;;5.80;5.30;;;;;;;32.82;25.13;97221.66;10228782;28;20061;-56
2022/08/06 12:51:40;;;;;;;5.75;4.65;;;;;;;32.65;26.04;97230.56;10230859;28;20073;-56
2022/08/06 12:56:40;;;;;;;4.97;4.43;;;;;;;32.23;26.66;97236.47;10224427;28;20049;-56
2022/08/06 13:01:43;;;;;;;5.60;4.75;;;;;;;32.10;27.01;97234.13;10221100;28;20111;-58
2022/08/06 13:06:42;;;;;;;6.25;5.15;;;;;;;32.00;27.19;97234.16;10236187;28;20437;-58
2022/08/06 13:11:41;;;;;;;6.47;5.10;;;;;;;31.97;27.03;97230.94;10221530;28;20065;-57
2022/08/06 13:16:42;;;;;;;6.53;5.40;;;;;;;32.31;26.60;97215.06;10219256;28;20073;-56
2022/08/06 13:21:44;;;;;;;7.80;5.30;;;;;;;32.92;25.56;97212.66;10230125;28;20558;-56
2022/08/06 13:26:52;;;;;;;5.35;4.85;;;;;;;33.38;25.66;97210.69;10219550;28;20472;-56
2022/08/06 13:32:17;;;;;;;6.93;5.13;;;;;;;33.77;25.47;97204.84;10240899;28;20074;-56
2022/08/06 13:37:16;;;;;;;6.32;4.95;;;;;;;33.46;25.10;97203.50;10223851;28;20146;-56
2022/08/06 13:42:15;;;;;;;6.70;5.13;;;;;;;33.08;25.55;97210.09;10244717;28;20074;-56
2022/08/06 13:47:26;;;;;;;5.10;4.60;;;;;;;32.82;25.46;97202.00;10237682;28;20081;-56
2022/08/06 13:52:25;;;;;;;5.38;4.88;;;;;;;32.90;26.04;97185.09;10234996;28;20520;-56
2022/08/06 13:57:24;;;;;;;7.47;4.20;;;;;;;33.29;25.21;97190.13;10243834;28;20464;-56
2022/08/06 14:02:23;;;;;;;5.40;4.82;;;;;;;33.74;24.38;97183.66;10239624;28;20822;-56
2022/08/06 14:07:22;;;;;;;6.10;4.90;;;;;;;34.03;23.81;97188.66;10238672;28;20122;-56
2022/08/06 14:12:21;;;;;;;6.65;4.97;;;;;;;33.59;24.50;97191.47;10243675;28;20034;-56
2022/08/06 14:17:20;;;;;;;6.78;4.40;;;;;;;33.21;24.70;97177.47;10241068;28;20034;-56
2022/08/06 14:22:19;;;;;;;4.90;4.00;;;;;;;32.91;24.85;97186.81;10232735;28;20492;-56
2022/08/06 14:27:19;;;;;;;4.70;4.20;;;;;;;32.82;25.09;97184.03;10238340;28;20055;-57
2022/08/06 14:32:17;;;;;;;5.60;4.50;;;;;;;33.05;25.33;97191.59;10226124;28;20088;-57
2022/08/06 14:37:16;;;;;;;5.47;4.25;;;;;;;33.25;25.07;97168.94;10229994;28;20050;-58
2022/08/06 14:47:33;;;;;;;;;;;;;;;33.34;24.70;97168.97;10251107;28;20050;-56
2022/08/06 14:52:32;;;;;;;8.10;4.05;;;;;;;32.98;25.21;97183.31;10235499;28;19956;-57
2022/08/06 14:57:31;;;;;;;6.10;4.35;;;;;;;32.80;24.83;97180.66;10238491;28;20061;-57
2022/08/06 15:02:30;;;;;;;5.25;4.65;;;;;;;32.92;25.80;97177.72;10233220;28;20030;-57
2022/08/06 15:07:30;;;;;;;5.70;4.65;;;;;;;32.71;25.73;97176.22;10253330;28;20097;-57
2022/08/06 15:12:29;;;;;;;6.00;4.85;;;;;;;32.72;25.34;97182.44;10257977;28;20073;-57
2022/08/06 15:17:29;;;;;;;7.60;5.10;;;;;;;32.63;26.13;97176.16;10220383;28;20031;-57
2022/08/06 15:22:28;;;;;;;8.55;4.90;;;;;;;32.45;25.74;97170.75;10217565;28;20070;-57
2022/08/06 15:27:27;;;;;;;5.75;4.95;;;;;;;32.26;26.29;97166.38;10217280;28;20162;-57
2022/08/06 15:32:26;;;;;;;6.45;4.85;;;;;;;32.30;26.38;97170.44;10230096;28;20058;-58
2022/08/06 15:37:25;;;;;;;6.40;4.90;;;;;;;32.25;26.31;97169.19;10215231;28;20078;-57
2022/08/06 15:42:24;;;;;;;7.28;4.57;;;;;;;32.32;25.78;97163.09;10225983;28;20631;-57
2022/08/06 15:47:23;;;;;;;5.35;4.85;;;;;;;32.48;26.06;97158.84;10221946;28;20061;-57
2022/08/06 15:52:22;;;;;;;5.20;4.40;;;;;;;32.59;26.11;97174.75;10236404;28;20058;-57
2022/08/06 15:57:22;;;;;;;5.22;4.57;;;;;;;32.71;25.70;97164.63;10216849;28;20082;-57
2022/08/06 16:02:21;;;;;;;6.95;3.90;;;;;;;32.68;26.43;97156.88;10229448;28;20066;-57
2022/08/06 16:07:21;;;;;;;6.18;4.40;;;;;;;32.37;26.52;97147.34;10224713;28;20080;-57
2022/08/06 16:12:20;;;;;;;8.13;4.35;;;;;;;32.31;26.41;97150.63;10249972;28;20070;-57
2022/08/06 16:17:19;;;;;;;5.68;4.68;;;;;;;32.28;26.52;97158.16;10221770;28;20138;-57
2022/08/06 16:22:18;;;;;;;8.48;4.50;;;;;;;32.12;26.28;97153.47;10213517;28;20077;-57
2022/08/06 16:27:18;;;;;;;5.30;4.50;;;;;;;32.15;26.37;97154.00;10226895;28;20430;-57
2022/08/06 16:32:18;;;;;;;7.07;5.38;;;;;;;32.05;27.82;97149.69;10220593;28;20459;-57
2022/08/06 16:37:16;;;;;;;7.88;5.60;;;;;;;31.80;29.10;97155.59;10219518;28;20134;-56
2022/08/06 16:42:16;;;;;;;9.70;5.15;;;;;;;31.51;29.90;97161.09;10223559;28;20129;-56
2022/08/06 16:47:15;;;;;;;8.30;5.45;;;;;;;31.18;30.62;97165.97;10216550;28;20062;-56
2022/08/06 16:52:14;;;;;;;7.45;4.68;;;;;;;30.96;30.86;97166.31;10212345;28;20074;-56
2022/08/06 16:57:13;;;;;;;7.15;4.43;;;;;;;30.79;31.43;97169.69;10210883;28;20116;-56
2022/08/06 17:07:30;;;;;;;7.82;5.50;;;;;;;30.13;32.51;97172.03;10254627;28;20117;-56
2022/08/06 17:12:30;;;;;;;8.07;6.20;;;;;;;29.89;32.86;97183.09;10254856;28;20077;-56
2022/08/06 17:17:29;;;;;;;11.70;6.82;;;;;;;29.71;33.06;97179.34;10256315;28;20121;-56
2022/08/06 17:22:28;;;;;;;8.93;6.00;;;;;;;29.56;33.67;97186.91;10253074;28;20065;-56
2022/08/06 17:27:27;;;;;;;9.13;5.93;;;;;;;29.25;34.04;97184.19;10251647;28;20069;-56
2022/08/06 17:32:26;;;;;;;7.22;5.78;;;;;;;29.01;34.75;97183.59;10258849;28;20089;-56
2022/08/06 17:37:25;;;;;;;8.02;5.60;;;;;;;28.74;35.02;97190.31;10258387;28;20392;-56
2022/08/06 17:42:25;;;;;;;6.40;5.30;;;;;;;28.51;35.36;97188.69;10254058;28;20053;-56
2022/08/06 17:47:24;;;;;;;8.40;5.25;;;;;;;28.30;36.26;97185.97;10259156;28;20093;-56
2022/08/06 17:52:24;;;;;;;6.43;5.20;;;;;;;28.12;36.87;97189.16;10257936;28;20038;-56
2022/08/06 17:57:23;;;;;;;7.28;5.18;;;;;;;27.93;37.22;97194.28;10250215;28;20074;-56
2022/08/06 18:02:22;;;;;;;6.00;5.35;;;;;;;27.76;37.43;97192.97;10217602;28;20078;-56
2022/08/06 18:07:23;;;;;;;8.95;5.97;;;;;;;27.59;37.92;97192.50;10217376;28;20033;-56
2022/08/06 18:12:22;;;;;;;11.77;6.78;;;;;;;27.31;38.35;97187.63;10218091;28;20086;-56
2022/08/06 18:17:21;;;;;;;17.02;9.82;;;;;;;27.23;38.99;97198.00;10246064;28;20077;-57
2022/08/06 18:22:21;;;;;;;13.13;9.55;;;;;;;27.04;39.59;97212.72;10256270;28;20072;-57
2022/08/06 18:27:21;;;;;;;12.65;9.95;;;;;;;26.72;40.66;97218.66;10255127;28;20072;-57
2022/08/06 18:32:20;;;;;;;14.52;8.75;;;;;;;26.51;41.56;97222.91;10256541;28;20058;-57
2022/08/06 18:37:19;;;;;;;12.25;8.25;;;;;;;26.29;42.18;97236.97;10256012;28;20078;-56
2022/08/06 18:42:18;;;;;;;11.35;7.30;;;;;;;26.04;42.26;97244.03;10226006;28;20114;-57
2022/08/06 18:47:17;;;;;;;10.85;7.20;;;;;;;25.93;42.31;97242.13;10216334;28;20023;-57
2022/08/06 18:52:17;;;;;;;9.95;7.40;;;;;;;25.85;42.52;97244.47;10220778;28;20480;-56
2022/08/06 18:57:16;;;;;;;10.43;6.95;;;;;;;25.80;42.59;97249.28;10255498;28;20069;-55
2022/08/06 19:02:15;;;;;;;12.20;6.85;;;;;;;25.73;42.80;97264.81;10254780;28;20053;-55
2022/08/06 19:07:15;;;;;;;9.55;7.20;;;;;;;25.67;43.04;97256.44;10255078;28;20077;-55
2022/08/06 19:12:15;;;;;;;10.52;6.95;;;;;;;25.59;43.07;97262.25;10255117;28;20062;-56
2022/08/06 19:17:18;;;;;;;9.73;6.47;;;;;;;25.60;42.92;97256.00;10229409;28;20078;-56
2022/08/06 19:22:23;;;;;;;7.75;6.32;;;;;;;25.55;43.22;97252.84;10215722;28;20070;-56
2022/08/06 19:27:22;;;;;;;8.90;6.40;;;;;;;25.60;43.01;97261.31;10215052;28;20066;-56
2022/08/06 19:32:21;;;;;;;9.75;6.57;;;;;;;25.59;43.20;97256.94;10214737;28;20143;-57
2022/08/06 19:37:20;;;;;;;8.70;6.32;;;;;;;25.61;43.54;97270.13;10213721;28;20158;-56
2022/08/06 19:42:19;;;;;;;8.90;7.35;;;;;;;25.58;43.90;97268.56;10236507;28;20131;-57
2022/08/06 19:47:18;;;;;;;9.77;7.07;;;;;;;25.56;44.18;97274.94;10227216;28;20129;-57
2022/08/06 19:52:17;;;;;;;11.07;7.78;;;;;;;25.42;45.19;97273.19;10213600;28;20065;-56
2022/08/06 19:57:16;;;;;;;8.57;6.53;;;;;;;25.25;45.37;97275.19;10213218;28;20031;-57
2022/08/06 20:02:17;;;;;;;7.10;5.90;;;;;;;25.09;45.78;97283.34;10214004;28;20051;-57
2022/08/06 20:07:16;;;;;;;10.32;6.88;;;;;;;24.98;46.04;97282.38;10213589;28;20492;-57
2022/08/06 20:12:15;;;;;;;10.93;7.30;;;;;;;24.90;46.12;97275.78;10212785;28;20073;-56
2022/08/06 20:17:14;;;;;;;8.75;7.10;;;;;;;24.77;46.81;97266.88;10212973;28;20042;-57
2022/08/06 20:22:13;;;;;;;12.23;8.25;;;;;;;24.63;47.21;97269.59;10212562;28;20405;-56
2022/08/06 20:27:12;;;;;;;10.25;7.72;;;;;;;24.56;47.68;97270.97;10220227;28;20096;-56
2022/08/06 20:32:11;;;;;;;11.57;8.43;;;;;;;24.42;47.99;97282.47;10251758;28;20096;-57
2022/08/06 20:37:10;;;;;;;14.20;9.05;;;;;;;24.39;48.33;97290.63;10246703;28;20427;-57
2022/08/06 20:42:09;;;;;;;14.82;9.95;;;;;;;24.28;48.56;97286.84;10251179;28;20048;-57
2022/08/06 20:47:07;;;;;;;11.82;8.93;;;;;;;24.25;49.30;97287.03;10251514;28;20089;-57
2022/08/06 20:52:06;;;;;;;14.80;8.95;;;;;;;24.05;49.86;97282.13;10248642;28;20042;-57
2022/08/06 20:57:05;;;;;;;12.95;9.23;;;;;;;23.98;50.34;97297.59;10250249;28;20683;-57
2022/08/06 21:02:04;;;;;;;13.48;9.38;;;;;;;23.87;50.75;97302.69;10250919;28;20041;-57
2022/08/06 21:07:03;;;;;;;15.50;8.65;;;;;;;23.81;50.94;97308.34;10246180;28;20459;-57
2022/08/06 21:12:03;;;;;;;13.55;9.20;;;;;;;23.78;51.44;97308.56;10210238;28;20901;-57
2022/08/06 21:17:02;;;;;;;13.95;9.05;;;;;;;23.65;52.22;97308.44;10210406;28;20058;-55
2022/08/06 21:22:02;;;;;;;10.95;8.38;;;;;;;23.54;52.83;97295.88;10210162;28;20073;-56
2022/08/06 21:27:01;;;;;;;9.73;8.18;;;;;;;23.54;53.01;97306.47;10208901;28;20066;-56
2022/08/06 21:31:59;;;;;;;10.65;8.10;;;;;;;23.44;53.33;97295.56;10210213;28;20050;-57
2022/08/06 21:37:00;;;;;;;11.40;8.73;;;;;;;23.36;53.36;97308.38;10226113;28;20042;-56
2022/08/06 21:41:59;;;;;;;10.82;8.68;;;;;;;23.27;53.95;97302.78;10216286;28;20074;-56
2022/08/06 21:46:58;;;;;;;14.15;8.02;;;;;;;23.13;54.42;97316.84;10208887;28;20062;-56
2022/08/06 21:51:57;;;;;;;10.70;8.02;;;;;;;23.02;54.54;97315.69;10216148;28;20074;-56
2022/08/06 21:56:56;;;;;;;9.60;7.68;;;;;;;22.97;54.68;97316.88;10232536;28;20157;-56
2022/08/06 22:01:55;;;;;;;9.95;7.55;;;;;;;22.86;55.38;97317.50;10257424;28;20061;-56
2022/08/06 22:06:54;;;;;;;9.85;7.78;;;;;;;22.76;55.35;97313.69;10240425;28;20038;-56
2022/08/06 22:11:53;;;;;;;11.50;7.97;;;;;;;22.75;55.78;97323.41;10251358;28;20808;-56
2022/08/06 22:16:52;;;;;;;10.85;8.20;;;;;;;22.69;56.52;97323.72;10254537;28;20054;-56
2022/08/06 22:21:51;;;;;;;10.88;8.10;;;;;;;22.56;58.25;97335.94;10253679;28;20054;-56
2022/08/06 22:26:51;;;;;;;10.88;7.97;;;;;;;22.46;58.27;97327.69;10257508;28;20419;-56
2022/08/06 22:31:49;;;;;;;10.50;7.70;;;;;;;22.48;57.93;97319.66;10256285;28;20526;-56
2022/08/06 22:36:49;;;;;;;12.27;7.93;;;;;;;22.53;58.02;97314.94;10256893;28;20070;-56
2022/08/06 22:41:49;;;;;;;10.45;8.20;;;;;;;22.55;58.09;97327.16;10245401;28;20113;-56
2022/08/06 22:46:48;;;;;;;11.68;8.00;;;;;;;22.44;59.26;97320.78;10252333;28;20448;-56
2022/08/06 22:51:47;;;;;;;12.95;8.43;;;;;;;22.42;59.01;97330.59;10253998;28;20073;-56
2022/08/06 22:56:46;;;;;;;10.20;7.93;;;;;;;22.31;59.64;97328.53;10255761;28;20045;-56
2022/08/06 23:01:45;;;;;;;9.82;7.68;;;;;;;22.17;60.28;97330.13;10255074;28;20081;-56
2022/08/06 23:06:44;;;;;;;11.95;8.23;;;;;;;22.15;60.43;97341.72;10255524;28;20057;-56
2022/08/06 23:11:43;;;;;;;9.48;7.93;;;;;;;22.05;60.95;97333.44;10255665;28;20061;-56
2022/08/06 23:16:42;;;;;;;10.10;7.60;;;;;;;22.03;60.54;97329.19;10254806;28;20015;-56
2022/08/06 23:21:41;;;;;;;11.82;7.68;;;;;;;22.04;60.68;97336.16;10255156;28;20073;-56
2022/08/06 23:26:40;;;;;;;10.98;7.22;;;;;;;22.01;60.92;97336.31;10254897;28;20118;-56